KFR22 LFPG-LFMN
Flight info
| Callsign | KFR22 |
|---|---|
| Flight time | 1h 10m |
| Altitude | 39000 |
| Route | LATRA DCT LAMUT DCT UTUVA DCT LERGA DCT LIQID DCT LATAM DCT TUNUR DCT NISAR |
| Aircraft | A20N/M-SDE2E3FGHIRWXY/LB1 |
Departure
| Time | 2026-05-07 20:51 |
|---|---|
| Airport | Charles de Gaulle International Airport (LFPG) |
Arrival
| Time | 2026-05-07 22:02 |
|---|---|
| Airport | Nice-Côte d'Azur Airport (LFMN) |
| Time | Latitude | Longitude | Altitude | Speed | Heading |
|---|---|---|---|---|---|
| 2026-05-07 20:14 | 49.00156 | 2.57727 | 354 ft | 0 kts | 357° |
| 2026-05-07 20:37 | 49.00151 | 2.57727 | 327 ft | 1 kts | 357° |
| 2026-05-07 20:38 | 49.00143 | 2.57728 | 362 ft | 1 kts | 357° |
| 2026-05-07 20:38 | 49.00135 | 2.57728 | 361 ft | 1 kts | 357° |
| 2026-05-07 20:38 | 49.00127 | 2.57729 | 354 ft | 1 kts | 357° |
| 2026-05-07 20:38 | 49.00119 | 2.57730 | 354 ft | 1 kts | 357° |
| 2026-05-07 20:39 | 49.00112 | 2.57730 | 357 ft | 1 kts | 357° |
| 2026-05-07 20:39 | 49.00104 | 2.57731 | 355 ft | 1 kts | 357° |
| 2026-05-07 20:39 | 49.00096 | 2.57731 | 354 ft | 1 kts | 350° |
| 2026-05-07 20:39 | 49.00088 | 2.57734 | 355 ft | 1 kts | 335° |
| 2026-05-07 20:40 | 49.00081 | 2.57739 | 357 ft | 1 kts | 319° |
| 2026-05-07 20:40 | 49.00075 | 2.57747 | 360 ft | 1 kts | 303° |
| 2026-05-07 20:40 | 49.00071 | 2.57758 | 360 ft | 1 kts | 290° |
| 2026-05-07 20:40 | 49.00069 | 2.57769 | 358 ft | 1 kts | 279° |
| 2026-05-07 20:41 | 49.00068 | 2.57781 | 358 ft | 1 kts | 269° |
| 2026-05-07 20:41 | 49.00068 | 2.57785 | 358 ft | 0 kts | 265° |
| 2026-05-07 20:44 | 49.00068 | 2.57784 | 358 ft | 1 kts | 265° |
| 2026-05-07 20:45 | 49.00060 | 2.57768 | 361 ft | 3 kts | 230° |
| 2026-05-07 20:45 | 49.00030 | 2.57740 | 355 ft | 7 kts | 198° |
| 2026-05-07 20:45 | 48.99986 | 2.57698 | 360 ft | 9 kts | 241° |
| 2026-05-07 20:45 | 48.99974 | 2.57590 | 354 ft | 12 kts | 264° |
| 2026-05-07 20:46 | 48.99968 | 2.57456 | 354 ft | 13 kts | 265° |
| 2026-05-07 20:46 | 48.99960 | 2.57303 | 354 ft | 16 kts | 265° |
| 2026-05-07 20:46 | 48.99949 | 2.57119 | 360 ft | 19 kts | 265° |
| 2026-05-07 20:46 | 48.99939 | 2.56905 | 354 ft | 22 kts | 266° |
| 2026-05-07 20:47 | 48.99925 | 2.56662 | 354 ft | 24 kts | 264° |
| 2026-05-07 20:47 | 48.99911 | 2.56393 | 354 ft | 26 kts | 265° |
| 2026-05-07 20:47 | 48.99896 | 2.56103 | 354 ft | 28 kts | 266° |
| 2026-05-07 20:47 | 48.99893 | 2.55938 | 354 ft | 15 kts | 275° |
| 2026-05-07 20:48 | 48.99891 | 2.55815 | 356 ft | 6 kts | 240° |
| 2026-05-07 20:48 | 48.99850 | 2.55796 | 356 ft | 8 kts | 178° |
| 2026-05-07 20:48 | 48.99779 | 2.55803 | 362 ft | 12 kts | 175° |
| 2026-05-07 20:48 | 48.99683 | 2.55815 | 356 ft | 16 kts | 175° |
| 2026-05-07 20:49 | 48.99612 | 2.55844 | 360 ft | 8 kts | 134° |
| 2026-05-07 20:49 | 48.99604 | 2.55896 | 354 ft | 0 kts | 85° |
| 2026-05-07 20:50 | 48.99615 | 2.56097 | 357 ft | 52 kts | 85° |
| 2026-05-07 20:50 | 48.99663 | 2.56973 | 353 ft | 111 kts | 85° |
| 2026-05-07 20:50 | 48.99737 | 2.58372 | 355 ft | 152 kts | 84° |
| 2026-05-07 20:51 | 48.99836 | 2.60137 | 475 ft | 178 kts | 85° |
| 2026-05-07 20:51 | 48.99916 | 2.62133 | 821 ft | 195 kts | 85° |
| 2026-05-07 20:51 | 49.00019 | 2.64130 | 1689 ft | 184 kts | 85° |
| 2026-05-07 20:51 | 49.00129 | 2.66045 | 2541 ft | 185 kts | 85° |
| 2026-05-07 20:52 | 49.00247 | 2.68108 | 2973 ft | 205 kts | 86° |
| 2026-05-07 20:52 | 49.00330 | 2.69599 | 3268 ft | 220 kts | 85° |
| 2026-05-07 20:52 | 49.00463 | 2.72047 | 3764 ft | 242 kts | 85° |
| 2026-05-07 20:52 | 49.00603 | 2.74692 | 4441 ft | 260 kts | 85° |
| 2026-05-07 20:53 | 49.00745 | 2.77482 | 5428 ft | 267 kts | 86° |
| 2026-05-07 20:53 | 49.00622 | 2.80325 | 6454 ft | 273 kts | 99° |
| 2026-05-07 20:53 | 49.00305 | 2.83170 | 7451 ft | 278 kts | 100° |
| 2026-05-07 20:53 | 48.99969 | 2.86064 | 8404 ft | 284 kts | 101° |
| 2026-05-07 20:54 | 48.99621 | 2.89081 | 9375 ft | 291 kts | 101° |
| 2026-05-07 20:54 | 48.99195 | 2.92095 | 10324 ft | 297 kts | 111° |
| 2026-05-07 20:54 | 48.98106 | 2.94862 | 10831 ft | 315 kts | 135° |
| 2026-05-07 20:54 | 48.96278 | 2.96848 | 11334 ft | 328 kts | 159° |
| 2026-05-07 20:55 | 48.94060 | 2.97539 | 12235 ft | 327 kts | 182° |
| 2026-05-07 20:55 | 48.91859 | 2.96883 | 13164 ft | 327 kts | 204° |
| 2026-05-07 20:55 | 48.89970 | 2.94974 | 14034 ft | 329 kts | 226° |
| 2026-05-07 20:55 | 48.88543 | 2.92225 | 14843 ft | 332 kts | 235° |
| 2026-05-07 20:56 | 48.87169 | 2.89369 | 15687 ft | 336 kts | 232° |
| 2026-05-07 20:56 | 48.85634 | 2.86650 | 16497 ft | 340 kts | 228° |
| 2026-05-07 20:56 | 48.83975 | 2.84118 | 17291 ft | 344 kts | 225° |
| 2026-05-07 20:56 | 48.82185 | 2.81629 | 18100 ft | 348 kts | 223° |
| 2026-05-07 20:57 | 48.80352 | 2.79188 | 18827 ft | 352 kts | 222° |
| 2026-05-07 20:57 | 48.78524 | 2.76788 | 19496 ft | 356 kts | 222° |
| 2026-05-07 20:57 | 48.76577 | 2.74498 | 20145 ft | 361 kts | 211° |
| 2026-05-07 20:57 | 48.74215 | 2.73121 | 20811 ft | 367 kts | 196° |
| 2026-05-07 20:58 | 48.71708 | 2.72256 | 21494 ft | 371 kts | 194° |
| 2026-05-07 20:58 | 48.69165 | 2.71460 | 22174 ft | 375 kts | 193° |
| 2026-05-07 20:58 | 48.66633 | 2.70670 | 22828 ft | 378 kts | 194° |
| 2026-05-07 20:58 | 48.64045 | 2.69845 | 23486 ft | 381 kts | 194° |
| 2026-05-07 20:59 | 48.61439 | 2.69000 | 24052 ft | 385 kts | 194° |
| 2026-05-07 20:59 | 48.58837 | 2.68147 | 24608 ft | 387 kts | 194° |
| 2026-05-07 20:59 | 48.56199 | 2.67280 | 25152 ft | 390 kts | 194° |
| 2026-05-07 20:59 | 48.53585 | 2.66418 | 25674 ft | 393 kts | 194° |
| 2026-05-07 21:00 | 48.50890 | 2.65531 | 26212 ft | 395 kts | 194° |
| 2026-05-07 21:00 | 48.48188 | 2.64643 | 26716 ft | 398 kts | 194° |
| 2026-05-07 21:00 | 48.45461 | 2.63748 | 27214 ft | 401 kts | 194° |
| 2026-05-07 21:00 | 48.42753 | 2.62862 | 27687 ft | 403 kts | 194° |
| 2026-05-07 21:01 | 48.39998 | 2.61960 | 28171 ft | 406 kts | 194° |
| 2026-05-07 21:01 | 48.37213 | 2.61050 | 28621 ft | 409 kts | 194° |
| 2026-05-07 21:01 | 48.34429 | 2.60141 | 29065 ft | 411 kts | 194° |
| 2026-05-07 21:01 | 48.31662 | 2.59239 | 29499 ft | 414 kts | 194° |
| 2026-05-07 21:02 | 48.28831 | 2.58316 | 29902 ft | 417 kts | 194° |
| 2026-05-07 21:02 | 48.25982 | 2.57389 | 30316 ft | 419 kts | 194° |
| 2026-05-07 21:02 | 48.23122 | 2.56460 | 30709 ft | 421 kts | 194° |
| 2026-05-07 21:02 | 48.20240 | 2.55524 | 31082 ft | 423 kts | 194° |
| 2026-05-07 21:03 | 48.17356 | 2.54590 | 31443 ft | 425 kts | 194° |
| 2026-05-07 21:03 | 48.14491 | 2.53662 | 31805 ft | 427 kts | 194° |
| 2026-05-07 21:03 | 48.11560 | 2.52805 | 32145 ft | 431 kts | 190° |
| 2026-05-07 21:03 | 48.08578 | 2.52593 | 32468 ft | 437 kts | 180° |
| 2026-05-07 21:04 | 48.05536 | 2.53162 | 32797 ft | 443 kts | 171° |
| 2026-05-07 21:04 | 48.02568 | 2.54474 | 33177 ft | 446 kts | 165° |
| 2026-05-07 21:04 | 47.99616 | 2.55957 | 33581 ft | 446 kts | 165° |
| 2026-05-07 21:04 | 47.96678 | 2.57420 | 34001 ft | 445 kts | 165° |
| 2026-05-07 21:05 | 47.93737 | 2.58874 | 34341 ft | 445 kts | 166° |
| 2026-05-07 21:05 | 47.90822 | 2.60308 | 34650 ft | 445 kts | 166° |
| 2026-05-07 21:05 | 47.87881 | 2.61750 | 34965 ft | 444 kts | 166° |
| 2026-05-07 21:05 | 47.84936 | 2.63193 | 35257 ft | 444 kts | 165° |
| 2026-05-07 21:06 | 47.81997 | 2.64631 | 35557 ft | 444 kts | 165° |
| 2026-05-07 21:06 | 47.79054 | 2.66070 | 35836 ft | 445 kts | 165° |
| 2026-05-07 21:06 | 47.76102 | 2.67511 | 36117 ft | 445 kts | 165° |
| 2026-05-07 21:06 | 47.73198 | 2.68928 | 36384 ft | 445 kts | 165° |
| 2026-05-07 21:07 | 47.70246 | 2.70366 | 36650 ft | 444 kts | 165° |
| 2026-05-07 21:07 | 47.67300 | 2.71799 | 36917 ft | 444 kts | 165° |
| 2026-05-07 21:07 | 47.64371 | 2.73222 | 37179 ft | 445 kts | 165° |
| 2026-05-07 21:07 | 47.61436 | 2.74646 | 37434 ft | 444 kts | 165° |
| 2026-05-07 21:08 | 47.58515 | 2.76062 | 37667 ft | 444 kts | 165° |
| 2026-05-07 21:08 | 47.55566 | 2.77490 | 37906 ft | 445 kts | 165° |
| 2026-05-07 21:08 | 47.52626 | 2.78912 | 38140 ft | 444 kts | 165° |
| 2026-05-07 21:08 | 47.49680 | 2.80335 | 38358 ft | 445 kts | 165° |
| 2026-05-07 21:09 | 47.46770 | 2.81738 | 38560 ft | 445 kts | 165° |
| 2026-05-07 21:09 | 47.43807 | 2.83166 | 38753 ft | 445 kts | 165° |
| 2026-05-07 21:09 | 47.40867 | 2.84581 | 38906 ft | 445 kts | 165° |
| 2026-05-07 21:09 | 47.37918 | 2.85999 | 39026 ft | 445 kts | 165° |
| 2026-05-07 21:10 | 47.34975 | 2.87413 | 39027 ft | 444 kts | 165° |
| 2026-05-07 21:10 | 47.29130 | 2.90215 | 39019 ft | 444 kts | 165° |
| 2026-05-07 21:11 | 47.23254 | 2.93026 | 39023 ft | 444 kts | 165° |
| 2026-05-07 21:11 | 47.14465 | 2.97219 | 39019 ft | 444 kts | 165° |
| 2026-05-07 21:12 | 47.08565 | 2.99931 | 39021 ft | 443 kts | 167° |
| 2026-05-07 21:12 | 47.02617 | 3.02324 | 39023 ft | 443 kts | 168° |
| 2026-05-07 21:13 | 46.96713 | 3.04707 | 39025 ft | 443 kts | 168° |
| 2026-05-07 21:13 | 46.90769 | 3.07139 | 39021 ft | 443 kts | 168° |
| 2026-05-07 21:14 | 46.84829 | 3.09571 | 39020 ft | 443 kts | 168° |
| 2026-05-07 21:14 | 46.78934 | 3.11979 | 39023 ft | 443 kts | 168° |
| 2026-05-07 21:15 | 46.72991 | 3.14401 | 39016 ft | 443 kts | 168° |
| 2026-05-07 21:15 | 46.67083 | 3.16805 | 39020 ft | 443 kts | 168° |
| 2026-05-07 21:16 | 46.61130 | 3.19219 | 39022 ft | 443 kts | 168° |
| 2026-05-07 21:16 | 46.55173 | 3.21631 | 39018 ft | 443 kts | 168° |
| 2026-05-07 21:17 | 46.49229 | 3.24031 | 39013 ft | 443 kts | 168° |
| 2026-05-07 21:17 | 46.43287 | 3.26425 | 39015 ft | 443 kts | 168° |
| 2026-05-07 21:18 | 46.37369 | 3.28803 | 39016 ft | 443 kts | 168° |
| 2026-05-07 21:18 | 46.31495 | 3.31160 | 39011 ft | 443 kts | 168° |
| 2026-05-07 21:19 | 46.25536 | 3.33543 | 39011 ft | 443 kts | 168° |
| 2026-05-07 21:19 | 46.19624 | 3.35902 | 39008 ft | 443 kts | 168° |
| 2026-05-07 21:20 | 46.13679 | 3.38271 | 39004 ft | 443 kts | 168° |
| 2026-05-07 21:20 | 46.07728 | 3.40637 | 39008 ft | 443 kts | 168° |
| 2026-05-07 21:21 | 46.01818 | 3.42982 | 39002 ft | 442 kts | 168° |
| 2026-05-07 21:21 | 45.95875 | 3.45334 | 39005 ft | 442 kts | 168° |
| 2026-05-07 21:22 | 45.89926 | 3.47683 | 39006 ft | 442 kts | 168° |
| 2026-05-07 21:22 | 45.83990 | 3.50051 | 39009 ft | 443 kts | 167° |
| 2026-05-07 21:23 | 45.78122 | 3.52605 | 39008 ft | 443 kts | 166° |
| 2026-05-07 21:23 | 45.72226 | 3.55176 | 39007 ft | 443 kts | 166° |
| 2026-05-07 21:24 | 45.66336 | 3.57714 | 39013 ft | 443 kts | 167° |
| 2026-05-07 21:24 | 45.60422 | 3.60249 | 39012 ft | 443 kts | 167° |
| 2026-05-07 21:25 | 45.54498 | 3.62783 | 39012 ft | 443 kts | 167° |
| 2026-05-07 21:25 | 45.48591 | 3.65304 | 39011 ft | 444 kts | 167° |
| 2026-05-07 21:26 | 45.42730 | 3.67800 | 39018 ft | 444 kts | 167° |
| 2026-05-07 21:26 | 45.36811 | 3.70316 | 39016 ft | 444 kts | 167° |
| 2026-05-07 21:27 | 45.30911 | 3.72948 | 39015 ft | 446 kts | 160° |
| 2026-05-07 21:27 | 45.25605 | 3.77488 | 39012 ft | 453 kts | 142° |
| 2026-05-07 21:28 | 45.21466 | 3.84303 | 39011 ft | 460 kts | 125° |
| 2026-05-07 21:28 | 45.18030 | 3.91945 | 39006 ft | 461 kts | 125° |
| 2026-05-07 21:29 | 45.14548 | 3.99590 | 39020 ft | 462 kts | 126° |
| 2026-05-07 21:29 | 45.11053 | 4.07228 | 39023 ft | 462 kts | 126° |
| 2026-05-07 21:30 | 45.07585 | 4.14787 | 39034 ft | 463 kts | 126° |
| 2026-05-07 21:30 | 45.04035 | 4.22399 | 39033 ft | 463 kts | 129° |
| 2026-05-07 21:31 | 44.99895 | 4.29332 | 39032 ft | 459 kts | 136° |
| 2026-05-07 21:31 | 44.95573 | 4.35944 | 39020 ft | 459 kts | 135° |
| 2026-05-07 21:32 | 44.91250 | 4.42576 | 39019 ft | 459 kts | 136° |
| 2026-05-07 21:32 | 44.86919 | 4.49208 | 39011 ft | 458 kts | 136° |
| 2026-05-07 21:33 | 44.82597 | 4.55812 | 39008 ft | 459 kts | 136° |
| 2026-05-07 21:33 | 44.78270 | 4.62405 | 39013 ft | 460 kts | 136° |
| 2026-05-07 21:34 | 44.73938 | 4.68992 | 39002 ft | 459 kts | 136° |
| 2026-05-07 21:34 | 44.69596 | 4.75580 | 38999 ft | 458 kts | 136° |
| 2026-05-07 21:35 | 44.65307 | 4.82069 | 38997 ft | 458 kts | 136° |
| 2026-05-07 21:35 | 44.61055 | 4.88641 | 39001 ft | 458 kts | 134° |
| 2026-05-07 21:36 | 44.56861 | 4.95416 | 39006 ft | 458 kts | 134° |
| 2026-05-07 21:36 | 44.53376 | 5.01010 | 39000 ft | 457 kts | 135° |
| 2026-05-07 21:37 | 44.49183 | 5.07690 | 38745 ft | 454 kts | 135° |
| 2026-05-07 21:37 | 44.47111 | 5.10983 | 38058 ft | 456 kts | 135° |
| 2026-05-07 21:37 | 44.44999 | 5.14337 | 37156 ft | 460 kts | 136° |
| 2026-05-07 21:38 | 44.42867 | 5.17719 | 36164 ft | 466 kts | 137° |
| 2026-05-07 21:38 | 44.40701 | 5.21151 | 35204 ft | 472 kts | 137° |
| 2026-05-07 21:38 | 44.38514 | 5.24602 | 34327 ft | 474 kts | 140° |
| 2026-05-07 21:38 | 44.36157 | 5.27792 | 33425 ft | 468 kts | 147° |
| 2026-05-07 21:39 | 44.33636 | 5.30588 | 32413 ft | 467 kts | 149° |
| 2026-05-07 21:39 | 44.31038 | 5.33400 | 31376 ft | 470 kts | 148° |
| 2026-05-07 21:39 | 44.28478 | 5.36176 | 30391 ft | 473 kts | 148° |
| 2026-05-07 21:39 | 44.26931 | 5.37856 | 29771 ft | 475 kts | 148° |
| 2026-05-07 21:40 | 44.23498 | 5.41586 | 28895 ft | 466 kts | 148° |
| 2026-05-07 21:40 | 44.21818 | 5.43415 | 28651 ft | 458 kts | 148° |
| 2026-05-07 21:40 | 44.19341 | 5.46111 | 28315 ft | 445 kts | 147° |
| 2026-05-07 21:40 | 44.16916 | 5.48745 | 27823 ft | 437 kts | 147° |
| 2026-05-07 21:41 | 44.14530 | 5.51328 | 27340 ft | 434 kts | 147° |
| 2026-05-07 21:41 | 44.12144 | 5.53903 | 26850 ft | 434 kts | 147° |
| 2026-05-07 21:41 | 44.09759 | 5.56476 | 26371 ft | 431 kts | 147° |
| 2026-05-07 21:41 | 44.07399 | 5.59026 | 26060 ft | 426 kts | 147° |
| 2026-05-07 21:42 | 44.05081 | 5.61526 | 25814 ft | 427 kts | 147° |
| 2026-05-07 21:42 | 44.02741 | 5.64094 | 25546 ft | 429 kts | 143° |
| 2026-05-07 21:42 | 44.00667 | 5.67092 | 25317 ft | 430 kts | 136° |
| 2026-05-07 21:42 | 43.98677 | 5.70152 | 25084 ft | 429 kts | 136° |
| 2026-05-07 21:43 | 43.96680 | 5.73233 | 24830 ft | 427 kts | 136° |
| 2026-05-07 21:43 | 43.94682 | 5.76308 | 24594 ft | 425 kts | 136° |
| 2026-05-07 21:43 | 43.92702 | 5.79350 | 24357 ft | 424 kts | 136° |
| 2026-05-07 21:43 | 43.90724 | 5.82380 | 24122 ft | 422 kts | 136° |
| 2026-05-07 21:44 | 43.88754 | 5.85393 | 23892 ft | 421 kts | 136° |
| 2026-05-07 21:44 | 43.86786 | 5.88399 | 23659 ft | 420 kts | 136° |
| 2026-05-07 21:44 | 43.84841 | 5.91366 | 23398 ft | 418 kts | 136° |
| 2026-05-07 21:44 | 43.82884 | 5.94348 | 23112 ft | 416 kts | 136° |
| 2026-05-07 21:45 | 43.80940 | 5.97306 | 22848 ft | 414 kts | 136° |
| 2026-05-07 21:45 | 43.79003 | 6.00252 | 22572 ft | 412 kts | 136° |
| 2026-05-07 21:45 | 43.77078 | 6.03176 | 22307 ft | 410 kts | 135° |
| 2026-05-07 21:45 | 43.75157 | 6.06092 | 22042 ft | 408 kts | 135° |
| 2026-05-07 21:46 | 43.73266 | 6.08961 | 21778 ft | 406 kts | 135° |
| 2026-05-07 21:46 | 43.71359 | 6.11849 | 21519 ft | 405 kts | 135° |
| 2026-05-07 21:46 | 43.69488 | 6.14679 | 21245 ft | 403 kts | 135° |
| 2026-05-07 21:46 | 43.67594 | 6.17539 | 20640 ft | 404 kts | 135° |
| 2026-05-07 21:47 | 43.65683 | 6.20418 | 19789 ft | 408 kts | 135° |
| 2026-05-07 21:47 | 43.63748 | 6.23330 | 19035 ft | 409 kts | 134° |
| 2026-05-07 21:47 | 43.61860 | 6.26173 | 18453 ft | 405 kts | 134° |
| 2026-05-07 21:47 | 43.59938 | 6.29066 | 17798 ft | 400 kts | 134° |
| 2026-05-07 21:48 | 43.58100 | 6.31835 | 17515 ft | 387 kts | 134° |
| 2026-05-07 21:48 | 43.56308 | 6.34534 | 17348 ft | 372 kts | 134° |
| 2026-05-07 21:48 | 43.54603 | 6.37098 | 17142 ft | 352 kts | 134° |
| 2026-05-07 21:48 | 43.52991 | 6.39522 | 16950 ft | 333 kts | 134° |
| 2026-05-07 21:49 | 43.51452 | 6.41835 | 16504 ft | 324 kts | 134° |
| 2026-05-07 21:49 | 43.49948 | 6.44088 | 15926 ft | 321 kts | 134° |
| 2026-05-07 21:49 | 43.48425 | 6.46306 | 15316 ft | 318 kts | 135° |
| 2026-05-07 21:49 | 43.46891 | 6.48506 | 14717 ft | 315 kts | 135° |
| 2026-05-07 21:50 | 43.45385 | 6.50664 | 14173 ft | 311 kts | 135° |
| 2026-05-07 21:50 | 43.43885 | 6.52816 | 13597 ft | 308 kts | 135° |
| 2026-05-07 21:50 | 43.42423 | 6.54916 | 13004 ft | 305 kts | 134° |
| 2026-05-07 21:50 | 43.40993 | 6.56972 | 12412 ft | 302 kts | 134° |
| 2026-05-07 21:51 | 43.39953 | 6.58468 | 11975 ft | 300 kts | 133° |
| 2026-05-07 21:51 | 43.38790 | 6.60831 | 11356 ft | 298 kts | 114° |
| 2026-05-07 21:51 | 43.38313 | 6.63581 | 10777 ft | 296 kts | 94° |
| 2026-05-07 21:51 | 43.38213 | 6.66402 | 10209 ft | 294 kts | 94° |
| 2026-05-07 21:52 | 43.38110 | 6.69200 | 9625 ft | 291 kts | 94° |
| 2026-05-07 21:52 | 43.38004 | 6.71924 | 9082 ft | 289 kts | 94° |
| 2026-05-07 21:52 | 43.37897 | 6.74642 | 8675 ft | 287 kts | 94° |
| 2026-05-07 21:52 | 43.37789 | 6.77370 | 8385 ft | 281 kts | 94° |
| 2026-05-07 21:53 | 43.37691 | 6.80034 | 8245 ft | 279 kts | 91° |
| 2026-05-07 21:53 | 43.37923 | 6.82648 | 7911 ft | 279 kts | 80° |
| 2026-05-07 21:53 | 43.38282 | 6.85290 | 7326 ft | 280 kts | 79° |
| 2026-05-07 21:53 | 43.38655 | 6.87916 | 6763 ft | 279 kts | 79° |
| 2026-05-07 21:54 | 43.39027 | 6.90539 | 6312 ft | 278 kts | 79° |
| 2026-05-07 21:54 | 43.39391 | 6.93144 | 5908 ft | 276 kts | 79° |
| 2026-05-07 21:54 | 43.39744 | 6.95701 | 5511 ft | 274 kts | 79° |
| 2026-05-07 21:54 | 43.40096 | 6.98277 | 5101 ft | 273 kts | 79° |
| 2026-05-07 21:55 | 43.40444 | 7.00841 | 4714 ft | 272 kts | 79° |
| 2026-05-07 21:55 | 43.40791 | 7.03398 | 4355 ft | 268 kts | 79° |
| 2026-05-07 21:55 | 43.41129 | 7.05862 | 4238 ft | 256 kts | 77° |
| 2026-05-07 21:55 | 43.41848 | 7.07990 | 4114 ft | 242 kts | 54° |
| 2026-05-07 21:56 | 43.42808 | 7.09809 | 3980 ft | 227 kts | 54° |
| 2026-05-07 21:56 | 43.43710 | 7.11519 | 3786 ft | 216 kts | 54° |
| 2026-05-07 21:56 | 43.44585 | 7.13183 | 3430 ft | 214 kts | 54° |
| 2026-05-07 21:56 | 43.45461 | 7.14853 | 3146 ft | 214 kts | 54° |
| 2026-05-07 21:57 | 43.46581 | 7.16127 | 2998 ft | 206 kts | 20° |
| 2026-05-07 21:57 | 43.47941 | 7.16324 | 2993 ft | 193 kts | 357° |
| 2026-05-07 21:57 | 43.49294 | 7.16171 | 3002 ft | 195 kts | 355° |
| 2026-05-07 21:57 | 43.50627 | 7.15986 | 2995 ft | 194 kts | 355° |
| 2026-05-07 21:58 | 43.51976 | 7.15799 | 2837 ft | 194 kts | 355° |
| 2026-05-07 21:58 | 43.53304 | 7.15620 | 2540 ft | 191 kts | 354° |
| 2026-05-07 21:58 | 43.54628 | 7.15427 | 2336 ft | 191 kts | 354° |
| 2026-05-07 21:58 | 43.55933 | 7.15205 | 2132 ft | 182 kts | 353° |
| 2026-05-07 21:59 | 43.57127 | 7.14961 | 1931 ft | 166 kts | 352° |
| 2026-05-07 21:59 | 43.58233 | 7.14747 | 1704 ft | 153 kts | 353° |
| 2026-05-07 21:59 | 43.59222 | 7.14567 | 1483 ft | 136 kts | 358° |
| 2026-05-07 21:59 | 43.60125 | 7.14722 | 1280 ft | 125 kts | 16° |
| 2026-05-07 22:00 | 43.60939 | 7.15154 | 1091 ft | 130 kts | 25° |
| 2026-05-07 22:00 | 43.61718 | 7.15776 | 950 ft | 128 kts | 34° |
| 2026-05-07 22:00 | 43.62412 | 7.16566 | 735 ft | 129 kts | 43° |
| 2026-05-07 22:00 | 43.63048 | 7.17429 | 561 ft | 129 kts | 43° |
| 2026-05-07 22:01 | 43.63685 | 7.18303 | 406 ft | 129 kts | 44° |
| 2026-05-07 22:01 | 43.64303 | 7.19176 | 290 ft | 129 kts | 44° |
| 2026-05-07 22:01 | 43.64934 | 7.20065 | 143 ft | 130 kts | 43° |
| 2026-05-07 22:01 | 43.65565 | 7.20931 | 22 ft | 120 kts | 43° |
| 2026-05-07 22:02 | 43.65978 | 7.21493 | 20 ft | 64 kts | 42° |
| 2026-05-07 22:02 | 43.66203 | 7.21746 | 20 ft | 15 kts | 346° |
| 2026-05-07 22:02 | 43.66277 | 7.21668 | 20 ft | 10 kts | 316° |
| 2026-05-07 22:02 | 43.66335 | 7.21587 | 21 ft | 13 kts | 316° |
| 2026-05-07 22:03 | 43.66361 | 7.21472 | 21 ft | 14 kts | 250° |
| 2026-05-07 22:03 | 43.66340 | 7.21327 | 21 ft | 17 kts | 263° |
| 2026-05-07 22:03 | 43.66320 | 7.21151 | 21 ft | 20 kts | 261° |
| 2026-05-07 22:03 | 43.66311 | 7.20998 | 21 ft | 13 kts | 289° |
| 2026-05-07 22:04 | 43.66315 | 7.20866 | 22 ft | 14 kts | 258° |
| 2026-05-07 22:04 | 43.66301 | 7.20756 | 22 ft | 8 kts | 262° |
| 2026-05-07 22:04 | 43.66302 | 7.20706 | 23 ft | 3 kts | 289° |
| 2026-05-07 22:04 | 43.66308 | 7.20696 | 23 ft | 2 kts | 307° |
| 2026-05-07 22:05 | 43.66331 | 7.20673 | 21 ft | 6 kts | 330° |
| 2026-05-07 22:05 | 43.66348 | 7.20662 | 21 ft | 2 kts | 335° |
| 2026-05-07 22:05 | 43.66349 | 7.20661 | 21 ft | 0 kts | 335° |